Time;durP1;ratioP1;P1;durP2;ratioP2;P2;SDS_P1;SDS_P2;PMS_P1;PMS_P2;Temp;Humidity;BMP_temperature;BMP_pressure;BME280_temperature;BME280_humidity;BME280_pressure;Samples;Min_cycle;Max_cycle;Signal;HPM_P1;HPM_P2
2022/03/28 00:00:38;;;;;;;44.23;19.27;;;5.80;99.90;;;;;;4927224;29;20034;-85
2022/03/28 00:03:05;;;;;;;47.50;17.60;;;5.80;99.90;;;;;;4923317;29;20095;-85
2022/03/28 00:05:32;;;;;;;43.83;17.57;;;5.90;99.90;;;;;;4925756;29;20082;-85
2022/03/28 00:07:58;;;;;;;37.63;17.47;;;5.80;99.90;;;;;;4926570;29;20067;-86
2022/03/28 00:10:24;;;;;;;39.90;16.63;;;5.90;99.90;;;;;;4922670;29;20103;-85
2022/03/28 00:12:50;;;;;;;39.90;16.80;;;5.90;99.90;;;;;;4925912;29;20119;-85
2022/03/28 00:15:17;;;;;;;38.83;15.97;;;5.80;99.90;;;;;;4926210;29;20038;-85
2022/03/28 00:17:42;;;;;;;37.47;16.10;;;5.90;99.90;;;;;;4899452;29;20032;-85
2022/03/28 00:20:11;;;;;;;37.70;14.43;;;5.80;99.90;;;;;;4925477;29;20373;-85
2022/03/28 00:22:40;;;;;;;27.17;13.43;;;5.70;99.90;;;;;;4923952;29;20088;-85
2022/03/28 00:25:08;;;;;;;34.37;15.67;;;5.60;99.90;;;;;;4921959;29;20028;-85
2022/03/28 00:27:33;;;;;;;41.17;14.43;;;5.60;99.90;;;;;;4904529;29;20048;-85
2022/03/28 00:29:59;;;;;;;35.27;15.10;;;5.60;99.90;;;;;;4924230;29;20035;-85
2022/03/28 00:32:25;;;;;;;33.67;15.67;;;5.60;99.90;;;;;;4927053;29;20032;-85
2022/03/28 00:34:51;;;;;;;35.63;15.43;;;5.60;99.90;;;;;;4922316;29;20428;-85
2022/03/28 00:37:16;;;;;;;29.87;14.10;;;5.50;99.90;;;;;;4925039;29;20605;-85
2022/03/28 00:39:42;;;;;;;33.60;14.40;;;5.50;99.90;;;;;;4926477;29;20066;-85
2022/03/28 00:42:08;;;;;;;33.10;15.27;;;5.40;99.90;;;;;;4938652;23;20055;-77
2022/03/28 00:44:34;;;;;;;30.43;13.83;;;5.30;99.90;;;;;;4916235;29;20063;-77
2022/03/28 00:47:00;;;;;;;37.67;15.70;;;5.20;99.90;;;;;;4926620;29;20029;-76
2022/03/28 00:49:26;;;;;;;38.93;14.63;;;5.30;99.90;;;;;;4910024;29;20035;-76
2022/03/28 00:51:53;;;;;;;33.57;13.80;;;5.20;99.90;;;;;;4906623;29;20543;-77
2022/03/28 00:54:19;;;;;;;34.93;14.10;;;5.10;99.90;;;;;;4922744;29;20032;-76
2022/03/28 00:56:49;;;;;;;37.30;14.13;;;5.00;99.90;;;;;;4926175;29;20024;-76
2022/03/28 00:59:15;;;;;;;40.13;15.27;;;5.00;99.90;;;;;;4922576;29;20024;-77
2022/03/28 01:01:41;;;;;;;33.40;12.90;;;4.90;99.90;;;;;;4923889;29;20038;-77
2022/03/28 01:04:08;;;;;;;31.17;13.37;;;4.80;99.90;;;;;;4926801;29;20019;-76
2022/03/28 01:06:38;;;;;;;31.90;14.73;;;4.70;99.90;;;;;;4926123;29;20035;-76
2022/03/28 01:09:04;;;;;;;29.07;13.63;;;4.60;99.90;;;;;;4922860;29;20122;-76
2022/03/28 01:11:32;;;;;;;30.30;12.83;;;4.60;99.90;;;;;;4925647;29;20022;-76
2022/03/28 01:13:59;;;;;;;32.17;14.67;;;4.60;99.90;;;;;;4926821;29;20031;-76
2022/03/28 01:19:16;;;;;;;34.37;13.93;;;4.40;99.90;;;;;;4926369;29;20388;-77
2022/03/28 01:21:42;;;;;;;35.60;14.20;;;4.30;99.90;;;;;;4907467;29;20476;-76
2022/03/28 01:24:08;;;;;;;29.40;13.03;;;4.20;99.90;;;;;;4921916;29;20119;-76
2022/03/28 01:26:34;;;;;;;30.57;13.70;;;4.20;99.90;;;;;;4921928;29;20020;-76
2022/03/28 01:29:01;;;;;;;25.17;13.07;;;4.20;99.90;;;;;;4923922;29;20037;-76
2022/03/28 01:31:27;;;;;;;33.70;14.87;;;4.10;99.90;;;;;;4925722;29;20027;-76
2022/03/28 01:33:53;;;;;;;29.17;12.90;;;4.00;99.90;;;;;;4904196;29;20024;-76
2022/03/28 01:36:25;;;;;;;32.63;14.57;;;3.90;99.90;;;;;;4906982;29;20594;-76
2022/03/28 01:38:51;;;;;;;28.23;12.70;;;3.90;99.90;;;;;;4925146;29;20023;-76
2022/03/28 01:41:16;;;;;;;29.17;13.73;;;3.90;99.90;;;;;;4933992;23;20040;-84
2022/03/28 01:43:42;;;;;;;32.03;14.13;;;4.00;99.90;;;;;;4923316;29;20446;-84
2022/03/28 01:46:08;;;;;;;27.97;13.07;;;4.00;99.90;;;;;;4921901;29;20028;-84
2022/03/28 01:48:33;;;;;;;27.27;14.00;;;3.90;99.80;;;;;;4925912;29;20067;-84
2022/03/28 01:50:59;;;;;;;31.60;13.87;;;3.90;99.70;;;;;;4922113;29;20103;-84
2022/03/28 01:53:25;;;;;;;26.07;11.60;;;3.70;99.50;;;;;;4922452;29;20533;-85
2022/03/28 01:55:50;;;;;;;34.57;14.07;;;3.70;99.80;;;;;;4926127;29;20159;-84
2022/03/28 01:58:16;;;;;;;26.97;13.00;;;3.50;99.60;;;;;;4921920;29;20020;-84
2022/03/28 02:00:42;;;;;;;35.77;14.57;;;3.60;99.90;;;;;;4922411;29;20131;-84
2022/03/28 02:03:07;;;;;;;31.47;14.07;;;3.50;99.90;;;;;;4925827;29;20032;-84
2022/03/28 02:05:33;;;;;;;34.87;14.27;;;3.40;99.90;;;;;;4921518;29;20024;-84
2022/03/28 02:07:59;;;;;;;35.07;16.33;;;3.30;99.90;;;;;;4922406;29;20072;-84
2022/03/28 02:10:25;;;;;;;35.20;13.97;;;3.20;99.90;;;;;;4929357;29;20424;-84
2022/03/28 02:12:52;;;;;;;29.47;13.00;;;3.30;99.90;;;;;;4924569;29;20032;-84
2022/03/28 02:15:19;;;;;;;28.60;12.73;;;3.40;99.90;;;;;;4926599;29;20043;-84
2022/03/28 02:17:45;;;;;;;29.37;13.07;;;3.30;99.90;;;;;;4924072;29;20056;-84
2022/03/28 02:20:12;;;;;;;27.37;11.80;;;3.30;99.90;;;;;;4928753;29;20043;-84
2022/03/28 02:22:40;;;;;;;31.03;12.57;;;3.20;99.90;;;;;;4926413;29;20024;-84
2022/03/28 02:25:09;;;;;;;26.77;11.80;;;3.20;99.90;;;;;;4924698;29;20035;-84
2022/03/28 02:27:35;;;;;;;29.27;12.37;;;3.30;99.90;;;;;;4928668;29;20051;-83
2022/03/28 02:30:02;;;;;;;29.03;13.20;;;3.20;99.70;;;;;;4907797;29;20119;-84
2022/03/28 02:32:28;;;;;;;32.23;13.67;;;3.00;99.60;;;;;;4925280;29;20025;-84
2022/03/28 02:34:54;;;;;;;30.37;13.60;;;3.00;99.80;;;;;;4928971;29;20086;-84
2022/03/28 02:37:20;;;;;;;30.93;13.20;;;3.00;99.90;;;;;;4924680;29;20057;-84
2022/03/28 02:39:45;;;;;;;31.17;12.30;;;3.00;99.90;;;;;;4925362;29;20028;-84
2022/03/28 02:42:11;;;;;;;27.40;11.83;;;3.00;99.90;;;;;;4940388;23;20051;-78
2022/03/28 02:44:37;;;;;;;29.73;11.23;;;3.00;99.90;;;;;;4924554;29;20032;-78
2022/03/28 02:47:04;;;;;;;30.10;11.80;;;3.00;99.90;;;;;;4924334;29;20028;-78
2022/03/28 02:49:29;;;;;;;24.80;10.47;;;3.00;99.90;;;;;;4928607;29;20035;-78
2022/03/28 02:51:55;;;;;;;23.10;10.33;;;3.00;99.60;;;;;;4923957;29;20031;-78
2022/03/28 02:54:22;;;;;;;19.40;10.47;;;2.90;99.70;;;;;;4925057;29;20032;-78
2022/03/28 02:56:48;;;;;;;21.23;10.13;;;2.90;99.80;;;;;;4927670;29;20461;-78
2022/03/28 02:59:13;;;;;;;29.23;11.67;;;2.90;99.90;;;;;;4923035;29;20032;-78
2022/03/28 03:01:40;;;;;;;25.50;11.23;;;2.90;99.70;;;;;;4923121;29;20050;-78
2022/03/28 03:04:06;;;;;;;26.10;10.80;;;2.90;99.80;;;;;;4923639;29;20087;-78
2022/03/28 03:06:31;;;;;;;21.93;10.83;;;2.90;99.70;;;;;;4928160;29;20488;-78
2022/03/28 03:08:57;;;;;;;24.80;11.73;;;2.90;99.60;;;;;;4925502;29;20042;-78
2022/03/28 03:11:22;;;;;;;32.57;11.53;;;2.80;99.40;;;;;;4925164;29;20489;-77
2022/03/28 03:13:49;;;;;;;27.80;12.53;;;2.80;99.60;;;;;;4927750;29;20095;-77
2022/03/28 03:16:16;;;;;;;26.53;11.13;;;2.80;99.80;;;;;;4924912;29;20059;-77
2022/03/28 03:18:41;;;;;;;26.67;12.00;;;2.70;99.80;;;;;;4923661;29;20044;-77
2022/03/28 03:21:07;;;;;;;25.60;10.67;;;2.80;99.70;;;;;;4928170;29;20031;-77
2022/03/28 03:23:33;;;;;;;27.57;11.90;;;2.80;99.70;;;;;;4924661;29;20024;-77
2022/03/28 03:25:58;;;;;;;27.73;11.13;;;2.60;99.80;;;;;;4923403;29;20028;-77
2022/03/28 03:28:25;;;;;;;25.17;9.90;;;2.70;99.90;;;;;;4927248;29;20038;-77
2022/03/28 03:30:51;;;;;;;20.60;9.37;;;2.70;99.90;;;;;;4924123;29;20550;-77
2022/03/28 03:33:17;;;;;;;32.00;11.73;;;2.60;99.80;;;;;;4923652;29;20051;-77
2022/03/28 03:35:43;;;;;;;23.37;10.17;;;2.50;99.90;;;;;;4927678;29;20016;-77
2022/03/28 03:38:09;;;;;;;27.77;10.77;;;2.40;99.80;;;;;;4924025;29;20469;-77
2022/03/28 03:40:35;;;;;;;27.67;11.07;;;2.40;99.90;;;;;;4924022;29;20130;-77
2022/03/28 03:43:01;;;;;;;21.80;10.30;;;2.50;99.90;;;;;;4927819;29;20544;-77
2022/03/28 03:45:27;;;;;;;27.60;10.03;;;2.60;99.90;;;;;;4926511;29;20027;-77
2022/03/28 03:47:53;;;;;;;21.97;9.60;;;2.60;99.90;;;;;;4925722;29;20031;-77
2022/03/28 03:50:18;;;;;;;22.67;9.73;;;2.70;99.90;;;;;;4922882;29;20107;-77
2022/03/28 03:52:44;;;;;;;23.93;11.20;;;2.70;99.80;;;;;;4926294;29;20020;-77
2022/03/28 03:55:10;;;;;;;22.50;9.20;;;2.50;99.60;;;;;;4925550;29;20511;-77
2022/03/28 03:57:36;;;;;;;22.03;9.57;;;2.40;99.80;;;;;;4922114;29;20068;-77
2022/03/28 04:00:04;;;;;;;20.67;9.10;;;2.40;99.90;;;;;;4926386;29;20444;-77
2022/03/28 04:02:29;;;;;;;24.50;9.83;;;2.40;99.90;;;;;;4924734;29;20031;-77
2022/03/28 04:04:55;;;;;;;25.83;9.80;;;2.40;99.90;;;;;;4922595;29;20028;-77
2022/03/28 04:07:21;;;;;;;24.57;9.73;;;2.50;99.90;;;;;;4926807;29;20023;-77
2022/03/28 04:09:47;;;;;;;23.00;9.83;;;2.40;99.90;;;;;;4924855;29;20396;-77
2022/03/28 04:12:14;;;;;;;26.07;9.83;;;2.50;99.90;;;;;;4941077;23;20079;-81
2022/03/28 04:14:40;;;;;;;19.67;8.97;;;2.60;99.90;;;;;;4933701;29;20043;-81
2022/03/28 04:17:05;;;;;;;19.90;8.80;;;2.60;99.90;;;;;;4931524;29;20039;-81
2022/03/28 04:19:31;;;;;;;26.90;11.30;;;2.60;99.90;;;;;;4922190;29;20040;-81
2022/03/28 04:21:57;;;;;;;19.77;9.93;;;2.70;99.90;;;;;;4927373;29;20028;-82
2022/03/28 04:24:23;;;;;;;24.00;10.17;;;2.60;99.90;;;;;;4924237;29;20042;-82
2022/03/28 04:26:48;;;;;;;25.17;10.37;;;2.50;99.90;;;;;;4922189;29;20028;-82
2022/03/28 04:29:14;;;;;;;27.80;11.27;;;2.50;99.90;;;;;;4927269;29;20048;-82
2022/03/28 04:31:40;;;;;;;24.47;10.57;;;2.40;99.90;;;;;;4907104;29;20024;-82
2022/03/28 04:34:09;;;;;;;24.27;10.60;;;2.40;99.90;;;;;;4922202;29;20039;-82
2022/03/28 04:36:37;;;;;;;28.70;10.53;;;2.60;99.90;;;;;;4927035;29;20024;-82
2022/03/28 04:39:04;;;;;;;23.23;9.20;;;2.70;99.90;;;;;;4923342;29;20119;-82
2022/03/28 04:41:30;;;;;;;20.00;8.93;;;2.60;99.90;;;;;;4924553;29;20032;-82
2022/03/28 04:43:56;;;;;;;19.90;9.63;;;2.60;99.90;;;;;;4927197;29;20039;-82
2022/03/28 04:46:21;;;;;;;19.33;8.63;;;2.60;99.90;;;;;;4923183;29;20084;-82
2022/03/28 04:48:48;;;;;;;24.00;9.50;;;2.80;99.90;;;;;;4923371;29;20474;-82
2022/03/28 04:51:15;;;;;;;28.60;9.83;;;2.80;99.90;;;;;;4926662;29;20028;-82
2022/03/28 04:53:40;;;;;;;26.10;11.10;;;2.70;99.90;;;;;;4922934;29;20028;-82
2022/03/28 04:56:06;;;;;;;23.80;10.20;;;2.60;99.90;;;;;;4924069;29;20481;-83
2022/03/28 04:58:32;;;;;;;26.70;10.90;;;2.50;99.90;;;;;;4926555;29;20023;-82
2022/03/28 05:00:57;;;;;;;31.90;11.90;;;2.50;99.90;;;;;;4922358;29;20024;-82
2022/03/28 05:03:23;;;;;;;23.50;10.83;;;2.50;99.90;;;;;;4923630;29;20032;-82
2022/03/28 05:05:49;;;;;;;25.07;10.07;;;2.50;99.90;;;;;;4926812;29;20503;-83
2022/03/28 05:08:14;;;;;;;25.07;10.43;;;2.60;99.90;;;;;;4922087;29;20032;-82
2022/03/28 05:10:41;;;;;;;22.57;9.10;;;2.70;99.90;;;;;;4923970;29;20039;-82
2022/03/28 05:13:06;;;;;;;25.83;10.83;;;2.80;99.90;;;;;;4925955;29;20047;-82
2022/03/28 05:15:32;;;;;;;19.10;9.23;;;2.90;99.90;;;;;;4926135;29;20020;-82
2022/03/28 05:17:58;;;;;;;20.27;8.93;;;2.90;99.90;;;;;;4923991;29;20028;-82
2022/03/28 05:20:24;;;;;;;21.80;9.70;;;2.80;99.90;;;;;;4921883;29;20055;-81
2022/03/28 05:22:50;;;;;;;21.63;9.30;;;2.70;99.90;;;;;;4926557;29;20384;-82
2022/03/28 05:25:15;;;;;;;25.37;9.87;;;2.60;99.90;;;;;;4924248;29;20034;-82
2022/03/28 05:27:46;;;;;;;27.47;9.97;;;2.60;99.90;;;;;;4921345;29;20512;-82
2022/03/28 05:30:12;;;;;;;19.53;9.43;;;2.70;99.90;;;;;;4926616;29;20118;-82
2022/03/28 05:32:38;;;;;;;27.90;11.67;;;2.50;99.90;;;;;;4923170;29;20035;-82
2022/03/28 05:35:07;;;;;;;30.20;11.77;;;2.50;99.90;;;;;;4922703;29;20032;-82
2022/03/28 05:37:34;;;;;;;31.50;12.17;;;2.50;99.90;;;;;;4926535;29;20046;-82
2022/03/28 05:40:01;;;;;;;32.33;13.33;;;2.50;99.90;;;;;;4922357;29;20032;-82
2022/03/28 05:42:27;;;;;;;37.17;14.77;;;2.40;99.90;;;;;;4942441;23;20133;-77
2022/03/28 05:44:54;;;;;;;32.90;14.13;;;2.30;99.90;;;;;;4933012;29;20023;-76
2022/03/28 05:47:19;;;;;;;29.83;12.17;;;2.30;99.90;;;;;;4930489;29;20083;-76
2022/03/28 05:49:45;;;;;;;28.80;12.50;;;2.30;99.90;;;;;;4927138;29;20036;-77
2022/03/28 05:52:11;;;;;;;32.07;11.90;;;2.40;99.90;;;;;;4931196;29;20040;-76
2022/03/28 05:54:37;;;;;;;35.67;13.90;;;2.40;99.90;;;;;;4929239;29;20031;-76
2022/03/28 05:57:03;;;;;;;33.40;14.47;;;2.40;99.90;;;;;;4927200;29;20034;-76
2022/03/28 05:59:28;;;;;;;30.60;14.00;;;2.30;99.90;;;;;;4929598;29;20023;-76
2022/03/28 06:01:54;;;;;;;42.30;15.50;;;2.40;99.90;;;;;;4924926;29;20032;-76
2022/03/28 06:04:20;;;;;;;41.27;15.23;;;2.40;99.90;;;;;;4927365;29;20038;-77
2022/03/28 06:06:47;;;;;;;40.87;15.43;;;2.50;99.90;;;;;;4929214;29;20027;-77
2022/03/28 06:09:13;;;;;;;34.57;15.13;;;2.60;99.90;;;;;;4924914;29;20083;-76
2022/03/28 06:11:39;;;;;;;37.17;14.50;;;2.60;99.90;;;;;;4927911;29;20044;-77
2022/03/28 06:14:04;;;;;;;34.27;13.73;;;2.60;99.90;;;;;;4928928;29;20035;-77
2022/03/28 06:16:30;;;;;;;35.27;15.17;;;2.70;99.90;;;;;;4924530;29;20031;-77
2022/03/28 06:18:56;;;;;;;39.83;16.03;;;2.80;99.90;;;;;;4927509;29;20453;-76
2022/03/28 06:21:22;;;;;;;47.10;15.80;;;2.80;99.90;;;;;;4928606;29;20115;-77
2022/03/28 06:23:47;;;;;;;31.90;14.10;;;2.90;99.90;;;;;;4924531;29;20469;-77
2022/03/28 06:26:14;;;;;;;40.10;14.50;;;2.90;99.90;;;;;;4927396;29;20055;-77
2022/03/28 06:28:40;;;;;;;39.93;14.93;;;2.90;99.90;;;;;;4927908;29;20120;-77
2022/03/28 06:31:09;;;;;;;37.23;15.33;;;3.00;99.90;;;;;;4924395;29;20024;-77
2022/03/28 06:33:35;;;;;;;38.60;15.40;;;3.00;99.90;;;;;;4927671;29;20027;-77
2022/03/28 06:36:01;;;;;;;43.83;15.90;;;3.20;99.90;;;;;;4926449;29;20036;-79
2022/03/28 06:38:27;;;;;;;38.20;15.57;;;3.20;99.90;;;;;;4923486;29;20477;-77
2022/03/28 06:40:53;;;;;;;36.33;13.43;;;3.30;99.90;;;;;;4924350;29;20028;-77
2022/03/28 06:43:19;;;;;;;36.67;13.67;;;3.40;99.90;;;;;;4908564;29;20043;-77
2022/03/28 06:45:45;;;;;;;40.57;14.37;;;3.50;99.90;;;;;;4928708;29;20461;-77
2022/03/28 06:48:11;;;;;;;44.87;17.17;;;3.60;99.90;;;;;;4923727;29;20028;-77
2022/03/28 06:50:37;;;;;;;44.00;17.07;;;3.70;99.90;;;;;;4925961;29;20412;-77
2022/03/28 06:53:03;;;;;;;41.37;14.83;;;3.80;99.90;;;;;;4928333;29;20028;-77
2022/03/28 06:55:29;;;;;;;44.87;16.87;;;3.80;99.90;;;;;;4928380;29;20024;-78
2022/03/28 06:57:54;;;;;;;40.70;15.03;;;3.90;99.90;;;;;;4925364;29;20171;-77
2022/03/28 07:00:20;;;;;;;48.73;16.63;;;4.00;99.90;;;;;;4923545;29;20024;-77
2022/03/28 07:02:47;;;;;;;40.00;16.13;;;4.10;99.90;;;;;;4923344;29;20107;-77
2022/03/28 07:05:13;;;;;;;36.30;15.40;;;4.20;99.90;;;;;;4924986;29;20110;-77
2022/03/28 07:07:43;;;;;;;40.47;16.47;;;4.40;99.90;;;;;;4927756;29;20031;-78
2022/03/28 07:10:10;;;;;;;35.90;17.20;;;4.60;99.90;;;;;;4923532;29;20034;-77
2022/03/28 07:12:36;;;;;;;53.33;17.27;;;4.80;99.90;;;;;;4945108;23;20048;-83
2022/03/28 07:15:02;;;;;;;38.57;16.40;;;4.90;99.90;;;;;;4933539;29;20361;-83
2022/03/28 07:17:28;;;;;;;35.90;16.87;;;5.10;99.90;;;;;;4928678;29;20029;-83
2022/03/28 07:19:53;;;;;;;33.60;14.57;;;5.40;99.90;;;;;;4926317;29;20126;-83
2022/03/28 07:22:19;;;;;;;38.07;14.83;;;5.70;99.90;;;;;;4926945;29;20060;-82
2022/03/28 07:24:45;;;;;;;33.20;13.77;;;6.00;99.90;;;;;;4923721;29;20501;-81
2022/03/28 07:27:11;;;;;;;31.90;12.30;;;6.30;99.90;;;;;;4923903;29;20032;-79
2022/03/28 07:29:38;;;;;;;35.43;12.90;;;6.60;98.90;;;;;;4924506;29;20075;-82
2022/03/28 07:32:04;;;;;;;27.35;11.32;;;6.80;97.80;;;;;;4926251;29;20058;-82
2022/03/28 07:34:30;;;;;;;25.70;10.52;;;7.00;97.50;;;;;;4923367;29;20434;-82
2022/03/28 07:36:57;;;;;;;30.90;11.55;;;7.20;96.90;;;;;;4925096;29;20052;-81
2022/03/28 07:39:23;;;;;;;25.13;11.40;;;7.40;96.40;;;;;;4927767;29;20070;-89
2022/03/28 07:41:50;;;;;;;26.00;10.65;;;7.50;95.50;;;;;;4927298;29;20593;-82
2022/03/28 07:44:16;;;;;;;27.58;11.45;;;7.50;95.50;;;;;;4925311;29;20071;-82
2022/03/28 07:46:44;;;;;;;25.42;10.57;;;7.70;94.90;;;;;;4923031;29;20476;-82
2022/03/28 07:49:11;;;;;;;29.15;10.98;;;7.80;94.70;;;;;;4910486;29;20110;-82
2022/03/28 07:51:37;;;;;;;27.55;11.02;;;7.90;94.30;;;;;;4924681;29;20421;-82
2022/03/28 07:54:03;;;;;;;25.55;10.55;;;8.00;93.50;;;;;;4923585;29;20116;-82
2022/03/28 07:56:29;;;;;;;28.92;10.77;;;8.10;93.10;;;;;;4927198;29;20027;-81
2022/03/28 07:58:55;;;;;;;18.98;10.25;;;8.10;92.90;;;;;;4924486;29;20393;-81
2022/03/28 08:01:20;;;;;;;20.52;10.93;;;8.30;93.40;;;;;;4923427;29;20028;-82
2022/03/28 08:03:46;;;;;;;24.80;9.88;;;8.60;93.40;;;;;;4927711;29;20091;-82
2022/03/28 08:06:12;;;;;;;25.27;10.07;;;8.70;91.70;;;;;;4923767;29;20028;-80
2022/03/28 08:08:38;;;;;;;22.75;9.70;;;8.90;91.20;;;;;;4923375;29;20078;-82
2022/03/28 09:12:57;;;;;;;27.05;10.23;;;13.60;76.20;;;;;;5198688;23;20055;-82
2022/03/28 09:15:23;;;;;;;23.02;9.60;;;13.40;73.70;;;;;;4933229;29;20173;-83
2022/03/28 09:17:56;;;;;;;27.50;9.10;;;14.00;73.10;;;;;;4908838;29;20111;-82
2022/03/28 09:20:24;;;;;;;23.38;10.35;;;14.30;69.80;;;;;;4916067;29;20059;-82
2022/03/28 09:22:50;;;;;;;23.58;9.95;;;14.70;71.00;;;;;;4908782;29;20020;-82
2022/03/28 09:25:19;;;;;;;29.85;11.15;;;15.30;68.30;;;;;;4929194;29;20023;-82
2022/03/28 09:27:45;;;;;;;28.73;9.93;;;15.20;69.20;;;;;;4911058;29;20035;-81
2022/03/28 09:30:19;;;;;;;23.40;10.25;;;16.00;68.00;;;;;;4925209;29;20520;-81
2022/03/28 09:32:47;;;;;;;25.58;10.05;;;16.80;64.10;;;;;;4925495;29;20585;-82
2022/03/28 09:35:21;;;;;;;26.55;10.02;;;17.50;63.00;;;;;;4928401;29;20016;-82
2022/03/28 09:38:08;;;;;;;25.92;9.43;;;18.40;61.20;;;;;;4927873;29;20031;-82
2022/03/28 09:40:40;;;;;;;23.13;10.40;;;19.00;59.50;;;;;;4927901;29;20032;-82
2022/03/28 09:43:16;;;;;;;27.58;11.05;;;18.60;58.00;;;;;;4930581;29;20424;-82
2022/03/28 09:45:45;;;;;;;26.80;10.00;;;18.50;58.30;;;;;;4925339;29;20084;-82
2022/03/28 09:48:11;;;;;;;25.10;9.57;;;18.80;58.10;;;;;;4925455;29;20547;-82
2022/03/28 09:50:43;;;;;;;22.77;10.40;;;19.10;57.40;;;;;;4928050;29;20028;-82
2022/03/28 09:53:16;;;;;;;28.15;10.75;;;19.60;56.90;;;;;;4928395;29;20031;-82
2022/03/28 09:55:51;;;;;;;25.83;11.18;;;20.00;55.00;;;;;;4925063;29;20024;-82
2022/03/28 09:58:35;;;;;;;27.27;10.75;;;20.00;55.20;;;;;;4924949;29;20103;-82
2022/03/28 10:01:04;;;;;;;25.20;11.18;;;20.40;54.10;;;;;;4925419;29;20046;-82
2022/03/28 10:03:33;;;;;;;31.92;11.85;;;20.80;54.50;;;;;;4929003;29;20027;-82
2022/03/28 10:06:04;;;;;;;32.33;12.35;;;19.90;52.50;;;;;;4927954;29;20052;-82
2022/03/28 10:08:30;;;;;;;27.67;10.95;;;20.40;51.90;;;;;;4925248;29;20389;-82
2022/03/28 10:11:00;;;;;;;26.63;11.25;;;21.20;52.20;;;;;;4929850;29;20480;-82
2022/03/28 11:13:15;;;;;;;37.50;15.70;;;21.60;50.80;;;;;;5242090;23;20060;-82
2022/03/28 11:15:43;;;;;;;42.03;15.73;;;21.80;51.00;;;;;;4930806;29;20023;-83
2022/03/28 11:18:10;;;;;;;41.63;17.08;;;21.60;51.20;;;;;;4921940;29;20075;-84
2022/03/28 11:20:47;;;;;;;39.90;16.08;;;21.50;51.50;;;;;;4925778;29;20019;-83
2022/03/28 11:23:15;;;;;;;31.23;15.75;;;21.90;50.20;;;;;;4925033;29;20031;-83
2022/03/28 11:25:57;;;;;;;38.83;15.90;;;22.10;50.80;;;;;;4927898;29;20083;-83
2022/03/28 11:28:23;;;;;;;;;;;23.20;48.50;;;;;;4923629;29;20024;-86
2022/03/28 11:30:59;;;;;;;37.80;15.00;;;23.90;46.00;;;;;;4928058;29;19914;-83
2022/03/28 11:33:30;;;;;;;35.33;15.45;;;24.10;45.00;;;;;;4924489;29;20016;-83
2022/03/28 11:36:05;;;;;;;39.53;17.40;;;24.00;44.70;;;;;;4924534;29;20029;-82
2022/03/28 11:38:35;;;;;;;34.95;15.93;;;24.40;44.60;;;;;;4909839;29;20154;-82
2022/03/28 11:41:02;;;;;;;43.30;18.25;;;24.50;43.80;;;;;;4923395;29;20481;-82
2022/03/28 11:43:39;;;;;;;37.55;15.80;;;24.70;43.80;;;;;;4929740;29;20036;-82
2022/03/28 11:46:18;;;;;;;40.95;16.73;;;26.20;41.60;;;;;;4926148;29;20022;-83
2022/03/28 11:48:52;;;;;;;36.05;16.58;;;26.30;39.60;;;;;;4924914;29;20052;-83
2022/03/28 11:51:18;;;;;;;41.53;18.05;;;26.80;39.70;;;;;;4924154;29;20421;-83
2022/03/28 11:53:44;;;;;;;41.72;18.35;;;25.80;39.20;;;;;;4927726;29;20499;-82
2022/03/28 11:56:10;;;;;;;38.95;17.30;;;25.40;40.20;;;;;;4924006;29;20091;-82
2022/03/28 11:58:35;;;;;;;37.28;16.98;;;26.30;39.40;;;;;;4924124;29;20123;-82
2022/03/28 12:01:10;;;;;;;35.53;15.38;;;26.10;39.50;;;;;;4927910;29;20115;-81
2022/03/28 12:03:57;;;;;;;36.25;16.00;;;26.50;40.00;;;;;;4923137;29;20020;-82
2022/03/28 12:06:28;;;;;;;35.13;15.88;;;26.60;38.50;;;;;;4922516;29;20437;-82
2022/03/28 12:08:55;;;;;;;36.35;16.02;;;25.90;39.90;;;;;;4926691;29;20023;-82
2022/03/28 13:13:35;;;;;;;49.28;17.80;;;18.80;58.30;;;;;;5020386;23;20048;-82
2022/03/28 13:16:00;;;;;;;46.13;17.60;;;18.80;59.50;;;;;;4906863;29;20023;-82
2022/03/28 13:18:27;;;;;;;44.30;18.55;;;18.80;60.20;;;;;;4906543;29;20051;-81
2022/03/28 13:20:55;;;;;;;40.22;17.50;;;18.90;60.20;;;;;;4902734;29;20058;-81
2022/03/28 13:23:25;;;;;;;45.03;18.52;;;19.20;59.70;;;;;;4905916;29;20020;-81
2022/03/28 13:25:51;;;;;;;44.15;17.95;;;19.20;58.50;;;;;;4905529;29;20035;-82
2022/03/28 13:28:23;;;;;;;47.40;19.45;;;19.10;57.80;;;;;;4902467;29;20024;-82
2022/03/28 13:30:52;;;;;;;50.25;18.65;;;18.70;60.40;;;;;;4902584;29;20037;-82
2022/03/28 13:33:19;;;;;;;41.70;19.20;;;18.60;60.10;;;;;;4905569;29;20473;-82
2022/03/28 13:35:47;;;;;;;39.75;18.10;;;18.70;59.30;;;;;;4906066;29;20580;-82
2022/03/28 13:38:18;;;;;;;43.60;18.65;;;19.00;59.80;;;;;;4888339;29;20040;-83
2022/03/28 13:40:50;;;;;;;48.63;18.23;;;19.10;57.70;;;;;;4902272;29;20021;-82
2022/03/28 13:43:18;;;;;;;46.28;19.42;;;19.20;58.40;;;;;;4906011;29;20578;-82
2022/03/28 13:45:44;;;;;;;42.08;18.08;;;19.10;59.30;;;;;;4903074;29;20466;-82
2022/03/28 13:48:15;;;;;;;41.60;18.98;;;18.80;58.50;;;;;;4907258;29;20029;-82
2022/03/28 13:50:43;;;;;;;37.93;17.37;;;18.90;59.90;;;;;;4902720;29;20020;-82
2022/03/28 13:53:12;;;;;;;43.05;18.38;;;18.90;59.60;;;;;;4904168;29;20293;-82
2022/03/28 13:55:39;;;;;;;41.35;18.77;;;18.90;59.10;;;;;;4906336;29;20112;-82
2022/03/28 13:58:06;;;;;;;43.95;19.10;;;18.90;59.70;;;;;;4901750;29;20047;-82
2022/03/28 14:00:32;;;;;;;44.22;19.15;;;18.70;59.90;;;;;;4904873;29;20164;-82
2022/03/28 14:02:59;;;;;;;44.20;19.67;;;18.40;61.40;;;;;;4905944;29;20048;-82
2022/03/28 14:05:26;;;;;;;39.05;18.90;;;18.40;60.90;;;;;;4901146;29;20025;-82
2022/03/28 14:07:52;;;;;;;41.33;19.27;;;18.60;60.50;;;;;;4905480;29;20099;-82
2022/03/28 14:10:18;;;;;;;40.50;17.52;;;18.60;59.80;;;;;;4908203;29;20119;-82
2022/03/28 15:12:17;;;;;;;47.65;22.33;;;16.80;71.20;;;;;;5684911;23;20075;-83
2022/03/28 15:14:42;;;;;;;47.70;21.80;;;17.00;71.20;;;;;;4915869;29;20102;-89
2022/03/28 15:17:09;;;;;;;41.88;19.73;;;16.90;71.10;;;;;;4898477;29;20138;-83
2022/03/28 15:19:35;;;;;;;48.72;23.35;;;17.00;70.70;;;;;;4900719;29;20046;-83
2022/03/28 15:22:03;;;;;;;50.75;23.30;;;17.00;71.50;;;;;;4923696;29;20020;-84
2022/03/28 15:24:30;;;;;;;55.00;22.73;;;16.70;71.10;;;;;;4907383;29;20034;-83
2022/03/28 15:26:56;;;;;;;48.97;21.58;;;16.50;72.40;;;;;;4925367;29;20072;-80
2022/03/28 15:29:23;;;;;;;48.08;22.98;;;16.40;73.70;;;;;;4923047;29;20019;-83
2022/03/28 15:31:49;;;;;;;50.88;22.45;;;16.40;73.50;;;;;;4924267;29;20052;-85
2022/03/28 15:34:16;;;;;;;47.92;24.00;;;16.60;73.20;;;;;;4925071;29;20020;-86
2022/03/28 15:36:47;;;;;;;51.08;23.08;;;16.60;72.50;;;;;;4923394;29;20019;-85
2022/03/28 15:39:15;;;;;;;48.25;23.90;;;16.70;72.80;;;;;;4906521;29;20048;-79
2022/03/28 15:41:41;;;;;;;52.08;22.33;;;16.50;71.70;;;;;;4919814;29;20098;-82
2022/03/28 15:44:08;;;;;;;48.50;23.60;;;16.30;74.00;;;;;;4904940;29;20016;-83
2022/03/28 15:46:37;;;;;;;52.50;23.75;;;16.10;75.00;;;;;;4919322;29;20027;-84
2022/03/28 15:49:03;;;;;;;60.58;24.58;;;16.10;74.70;;;;;;4903504;29;20035;-83
2022/03/28 15:51:29;;;;;;;47.35;22.05;;;16.10;75.50;;;;;;4921792;29;20112;-85
2022/03/28 15:53:56;;;;;;;45.08;21.48;;;16.20;76.00;;;;;;4902223;29;20107;-87
2022/03/28 15:56:23;;;;;;;48.08;23.42;;;16.30;74.70;;;;;;4902886;29;20032;-85
2022/03/28 15:58:53;;;;;;;42.33;20.65;;;16.40;74.00;;;;;;4903046;29;20036;-78
2022/03/28 16:01:39;;;;;;;48.53;22.88;;;16.50;74.00;;;;;;4920438;29;20726;-78
2022/03/28 16:04:11;;;;;;;47.60;20.65;;;16.40;74.20;;;;;;4920101;29;20016;-82
2022/03/28 16:06:39;;;;;;;50.22;22.13;;;16.40;74.10;;;;;;4918747;29;20647;-80
2022/03/28 16:09:06;;;;;;;54.67;23.25;;;16.40;73.10;;;;;;4919499;29;20040;-81
2022/03/28 17:13:54;;;;;;;53.55;24.83;;;15.10;79.40;;;;;;4956442;23;20059;-78
2022/03/28 17:16:24;;;;;;;50.65;24.27;;;15.10;80.20;;;;;;4914657;29;20028;-78
2022/03/28 17:18:51;;;;;;;54.53;24.35;;;15.00;80.10;;;;;;4914686;29;20123;-78
2022/03/28 17:21:17;;;;;;;54.92;25.55;;;14.90;81.90;;;;;;4914364;29;20063;-78
2022/03/28 17:23:43;;;;;;;57.45;25.80;;;14.80;81.50;;;;;;4913958;29;20080;-78
2022/03/28 17:26:09;;;;;;;53.53;25.63;;;14.80;81.90;;;;;;4907662;29;20024;-78
2022/03/28 17:28:35;;;;;;;58.47;26.60;;;14.80;82.20;;;;;;4913702;29;20127;-78
2022/03/28 17:31:03;;;;;;;59.30;26.48;;;14.70;82.60;;;;;;4914492;29;20035;-78
2022/03/28 17:33:30;;;;;;;57.95;25.38;;;14.60;82.70;;;;;;4914482;29;20475;-78
2022/03/28 17:35:56;;;;;;;53.50;25.10;;;14.50;83.00;;;;;;4914170;29;20120;-78
2022/03/28 17:38:22;;;;;;;57.47;27.17;;;14.50;83.80;;;;;;4913579;29;20463;-78
2022/03/28 17:40:47;;;;;;;52.97;24.73;;;14.40;83.90;;;;;;4914144;29;20020;-78
2022/03/28 17:43:14;;;;;;;53.05;26.30;;;14.40;83.80;;;;;;4916907;29;20075;-78